sensor_id;sensor_type;location;lat;lon;timestamp;P1;durP1;ratioP1;P2;durP2;ratioP2
11887;SDS011;6003;42.756;23.130;2023-06-22T00:02:28;5.37;;;4.60;;
11887;SDS011;6003;42.756;23.130;2023-06-22T00:04:54;5.00;;;4.60;;
11887;SDS011;6003;42.756;23.130;2023-06-22T00:07:21;5.40;;;4.90;;
11887;SDS011;6003;42.756;23.130;2023-06-22T00:09:49;4.73;;;4.27;;
11887;SDS011;6003;42.756;23.130;2023-06-22T00:12:15;5.17;;;4.10;;
11887;SDS011;6003;42.756;23.130;2023-06-22T00:14:42;5.13;;;4.63;;
11887;SDS011;6003;42.756;23.130;2023-06-22T00:17:10;5.13;;;4.63;;
11887;SDS011;6003;42.756;23.130;2023-06-22T00:19:38;5.10;;;4.17;;
11887;SDS011;6003;42.756;23.130;2023-06-22T00:22:05;4.60;;;4.17;;
11887;SDS011;6003;42.756;23.130;2023-06-22T00:24:32;5.00;;;4.50;;
11887;SDS011;6003;42.756;23.130;2023-06-22T00:26:59;4.40;;;3.60;;
11887;SDS011;6003;42.756;23.130;2023-06-22T00:29:26;5.17;;;4.47;;
11887;SDS011;6003;42.756;23.130;2023-06-22T00:31:52;4.93;;;4.10;;
11887;SDS011;6003;42.756;23.130;2023-06-22T00:34:19;4.70;;;4.30;;
11887;SDS011;6003;42.756;23.130;2023-06-22T00:36:47;4.87;;;4.47;;
11887;SDS011;6003;42.756;23.130;2023-06-22T00:39:16;4.67;;;4.27;;
11887;SDS011;6003;42.756;23.130;2023-06-22T00:41:43;5.20;;;4.43;;
11887;SDS011;6003;42.756;23.130;2023-06-22T00:44:10;4.43;;;4.10;;
11887;SDS011;6003;42.756;23.130;2023-06-22T00:46:37;4.77;;;4.37;;
11887;SDS011;6003;42.756;23.130;2023-06-22T00:49:04;5.40;;;4.63;;
11887;SDS011;6003;42.756;23.130;2023-06-22T00:51:31;9.07;;;5.00;;
11887;SDS011;6003;42.756;23.130;2023-06-22T00:53:59;4.60;;;4.20;;
11887;SDS011;6003;42.756;23.130;2023-06-22T00:56:27;5.13;;;4.63;;
11887;SDS011;6003;42.756;23.130;2023-06-22T00:58:55;4.93;;;4.53;;
11887;SDS011;6003;42.756;23.130;2023-06-22T01:01:22;5.17;;;4.20;;
11887;SDS011;6003;42.756;23.130;2023-06-22T01:03:49;5.13;;;4.20;;
11887;SDS011;6003;42.756;23.130;2023-06-22T01:06:19;5.40;;;4.43;;
11887;SDS011;6003;42.756;23.130;2023-06-22T01:08:53;5.47;;;4.37;;
11887;SDS011;6003;42.756;23.130;2023-06-22T01:11:31;4.97;;;4.23;;
11887;SDS011;6003;42.756;23.130;2023-06-22T01:14:04;5.00;;;4.53;;
11887;SDS011;6003;42.756;23.130;2023-06-22T01:16:35;5.10;;;4.60;;
11887;SDS011;6003;42.756;23.130;2023-06-22T01:19:09;4.87;;;4.23;;
11887;SDS011;6003;42.756;23.130;2023-06-22T01:21:46;5.50;;;4.10;;
11887;SDS011;6003;42.756;23.130;2023-06-22T01:24:18;5.03;;;4.37;;
11887;SDS011;6003;42.756;23.130;2023-06-22T01:26:57;5.27;;;4.77;;
11887;SDS011;6003;42.756;23.130;2023-06-22T01:29:32;4.47;;;4.07;;
11887;SDS011;6003;42.756;23.130;2023-06-22T01:32:00;6.17;;;4.73;;
11887;SDS011;6003;42.756;23.130;2023-06-22T01:34:30;7.37;;;4.20;;
11887;SDS011;6003;42.756;23.130;2023-06-22T01:36:58;5.17;;;4.67;;
11887;SDS011;6003;42.756;23.130;2023-06-22T01:39:27;5.00;;;4.27;;
11887;SDS011;6003;42.756;23.130;2023-06-22T01:41:55;5.30;;;4.27;;
11887;SDS011;6003;42.756;23.130;2023-06-22T01:44:23;7.23;;;4.83;;
11887;SDS011;6003;42.756;23.130;2023-06-22T01:46:53;5.03;;;4.47;;
11887;SDS011;6003;42.756;23.130;2023-06-22T01:49:21;5.63;;;4.27;;
11887;SDS011;6003;42.756;23.130;2023-06-22T01:51:48;5.03;;;4.50;;
11887;SDS011;6003;42.756;23.130;2023-06-22T01:54:15;4.47;;;4.10;;
11887;SDS011;6003;42.756;23.130;2023-06-22T01:56:42;5.23;;;4.40;;
11887;SDS011;6003;42.756;23.130;2023-06-22T01:59:10;5.47;;;4.83;;
11887;SDS011;6003;42.756;23.130;2023-06-22T02:01:46;6.07;;;4.67;;
11887;SDS011;6003;42.756;23.130;2023-06-22T02:04:24;4.90;;;4.43;;
11887;SDS011;6003;42.756;23.130;2023-06-22T02:06:55;6.17;;;4.87;;
11887;SDS011;6003;42.756;23.130;2023-06-22T02:09:24;9.23;;;5.33;;
11887;SDS011;6003;42.756;23.130;2023-06-22T02:11:55;5.90;;;5.30;;
11887;SDS011;6003;42.756;23.130;2023-06-22T02:14:23;5.83;;;4.70;;
11887;SDS011;6003;42.756;23.130;2023-06-22T02:16:51;5.30;;;4.80;;
11887;SDS011;6003;42.756;23.130;2023-06-22T02:19:23;6.00;;;4.83;;
11887;SDS011;6003;42.756;23.130;2023-06-22T02:21:50;5.03;;;4.53;;
11887;SDS011;6003;42.756;23.130;2023-06-22T02:24:17;5.50;;;4.53;;
11887;SDS011;6003;42.756;23.130;2023-06-22T02:26:44;7.30;;;5.30;;
11887;SDS011;6003;42.756;23.130;2023-06-22T02:29:11;6.57;;;4.63;;
11887;SDS011;6003;42.756;23.130;2023-06-22T02:31:38;5.40;;;3.87;;
11887;SDS011;6003;42.756;23.130;2023-06-22T02:34:05;4.83;;;4.40;;
11887;SDS011;6003;42.756;23.130;2023-06-22T02:36:33;7.43;;;5.37;;
11887;SDS011;6003;42.756;23.130;2023-06-22T02:39:00;5.93;;;4.97;;
11887;SDS011;6003;42.756;23.130;2023-06-22T02:41:28;7.37;;;5.03;;
11887;SDS011;6003;42.756;23.130;2023-06-22T02:46:36;8.97;;;4.93;;
11887;SDS011;6003;42.756;23.130;2023-06-22T02:49:03;5.30;;;4.80;;
11887;SDS011;6003;42.756;23.130;2023-06-22T02:51:33;5.10;;;4.23;;
11887;SDS011;6003;42.756;23.130;2023-06-22T02:54:01;5.87;;;5.17;;
11887;SDS011;6003;42.756;23.130;2023-06-22T02:56:28;5.83;;;4.83;;
11887;SDS011;6003;42.756;23.130;2023-06-22T02:58:55;7.60;;;5.07;;
11887;SDS011;6003;42.756;23.130;2023-06-22T03:01:26;6.40;;;5.17;;
11887;SDS011;6003;42.756;23.130;2023-06-22T03:03:53;5.57;;;4.90;;
11887;SDS011;6003;42.756;23.130;2023-06-22T03:06:20;5.97;;;5.17;;
11887;SDS011;6003;42.756;23.130;2023-06-22T03:08:50;6.07;;;5.43;;
11887;SDS011;6003;42.756;23.130;2023-06-22T03:11:17;7.20;;;6.07;;
11887;SDS011;6003;42.756;23.130;2023-06-22T03:13:43;6.57;;;5.00;;
11887;SDS011;6003;42.756;23.130;2023-06-22T03:16:11;7.40;;;5.37;;
11887;SDS011;6003;42.756;23.130;2023-06-22T03:18:38;7.53;;;5.40;;
11887;SDS011;6003;42.756;23.130;2023-06-22T03:21:05;6.47;;;5.63;;
11887;SDS011;6003;42.756;23.130;2023-06-22T03:23:31;8.90;;;5.70;;
11887;SDS011;6003;42.756;23.130;2023-06-22T03:26:00;6.27;;;5.33;;
11887;SDS011;6003;42.756;23.130;2023-06-22T03:28:27;5.80;;;4.30;;
11887;SDS011;6003;42.756;23.130;2023-06-22T03:30:54;7.10;;;5.43;;
11887;SDS011;6003;42.756;23.130;2023-06-22T03:33:23;4.87;;;4.30;;
11887;SDS011;6003;42.756;23.130;2023-06-22T03:35:50;6.83;;;5.07;;
11887;SDS011;6003;42.756;23.130;2023-06-22T03:38:17;5.30;;;4.80;;
11887;SDS011;6003;42.756;23.130;2023-06-22T03:40:44;6.13;;;5.10;;
11887;SDS011;6003;42.756;23.130;2023-06-22T03:43:12;4.97;;;4.50;;
11887;SDS011;6003;42.756;23.130;2023-06-22T03:45:39;4.90;;;4.50;;
11887;SDS011;6003;42.756;23.130;2023-06-22T03:48:06;5.57;;;4.57;;
11887;SDS011;6003;42.756;23.130;2023-06-22T03:50:33;5.30;;;4.60;;
11887;SDS011;6003;42.756;23.130;2023-06-22T03:52:59;5.23;;;4.80;;
11887;SDS011;6003;42.756;23.130;2023-06-22T03:55:27;5.20;;;4.70;;
11887;SDS011;6003;42.756;23.130;2023-06-22T03:57:53;5.67;;;5.00;;
11887;SDS011;6003;42.756;23.130;2023-06-22T04:00:23;4.93;;;4.53;;
11887;SDS011;6003;42.756;23.130;2023-06-22T04:02:50;5.37;;;4.87;;
11887;SDS011;6003;42.756;23.130;2023-06-22T04:05:17;5.77;;;4.83;;
11887;SDS011;6003;42.756;23.130;2023-06-22T04:07:44;5.40;;;4.47;;
11887;SDS011;6003;42.756;23.130;2023-06-22T04:10:10;5.67;;;5.17;;
11887;SDS011;6003;42.756;23.130;2023-06-22T04:12:37;4.50;;;4.10;;
11887;SDS011;6003;42.756;23.130;2023-06-22T04:15:05;6.38;;;4.30;;
11887;SDS011;6003;42.756;23.130;2023-06-22T04:17:33;4.70;;;4.30;;
11887;SDS011;6003;42.756;23.130;2023-06-22T04:20:00;4.70;;;4.30;;
11887;SDS011;6003;42.756;23.130;2023-06-22T04:22:29;4.43;;;4.03;;
11887;SDS011;6003;42.756;23.130;2023-06-22T04:24:55;7.40;;;4.45;;
11887;SDS011;6003;42.756;23.130;2023-06-22T04:27:22;4.47;;;4.10;;
11887;SDS011;6003;42.756;23.130;2023-06-22T04:29:49;4.53;;;4.15;;
11887;SDS011;6003;42.756;23.130;2023-06-22T04:32:16;4.50;;;4.10;;
11887;SDS011;6003;42.756;23.130;2023-06-22T04:34:44;4.95;;;4.55;;
11887;SDS011;6003;42.756;23.130;2023-06-22T04:37:11;5.40;;;4.47;;
11887;SDS011;6003;42.756;23.130;2023-06-22T04:39:40;4.70;;;4.32;;
11887;SDS011;6003;42.756;23.130;2023-06-22T04:42:07;5.38;;;4.25;;
11887;SDS011;6003;42.756;23.130;2023-06-22T04:44:34;4.70;;;4.30;;
11887;SDS011;6003;42.756;23.130;2023-06-22T04:47:01;4.78;;;4.30;;
11887;SDS011;6003;42.756;23.130;2023-06-22T04:49:29;4.22;;;3.85;;
11887;SDS011;6003;42.756;23.130;2023-06-22T04:52:01;4.30;;;3.90;;
11887;SDS011;6003;42.756;23.130;2023-06-22T04:54:29;4.82;;;4.43;;
11887;SDS011;6003;42.756;23.130;2023-06-22T04:56:58;4.70;;;4.30;;
11887;SDS011;6003;42.756;23.130;2023-06-22T04:59:26;4.90;;;4.30;;
11887;SDS011;6003;42.756;23.130;2023-06-22T05:01:55;4.43;;;4.00;;
11887;SDS011;6003;42.756;23.130;2023-06-22T05:04:22;4.47;;;4.13;;
11887;SDS011;6003;42.756;23.130;2023-06-22T05:06:49;4.43;;;4.03;;
11887;SDS011;6003;42.756;23.130;2023-06-22T05:09:17;4.70;;;4.35;;
11887;SDS011;6003;42.756;23.130;2023-06-22T05:11:44;4.55;;;4.15;;
11887;SDS011;6003;42.756;23.130;2023-06-22T05:14:11;5.50;;;4.75;;
11887;SDS011;6003;42.756;23.130;2023-06-22T05:16:40;5.85;;;5.15;;
11887;SDS011;6003;42.756;23.130;2023-06-22T05:19:07;6.10;;;5.50;;
11887;SDS011;6003;42.756;23.130;2023-06-22T05:21:34;5.45;;;4.95;;
11887;SDS011;6003;42.756;23.130;2023-06-22T05:24:01;5.78;;;5.25;;
11887;SDS011;6003;42.756;23.130;2023-06-22T05:26:30;5.13;;;4.55;;
11887;SDS011;6003;42.756;23.130;2023-06-22T05:28:58;5.18;;;4.78;;
11887;SDS011;6003;42.756;23.130;2023-06-22T05:31:25;5.10;;;4.60;;
11887;SDS011;6003;42.756;23.130;2023-06-22T05:33:53;5.47;;;4.82;;
11887;SDS011;6003;42.756;23.130;2023-06-22T05:36:21;5.18;;;4.78;;
11887;SDS011;6003;42.756;23.130;2023-06-22T05:38:50;4.72;;;4.32;;
11887;SDS011;6003;42.756;23.130;2023-06-22T05:41:17;5.03;;;4.63;;
11887;SDS011;6003;42.756;23.130;2023-06-22T05:43:45;6.05;;;4.55;;
11887;SDS011;6003;42.756;23.130;2023-06-22T05:46:12;5.38;;;4.88;;
11887;SDS011;6003;42.756;23.130;2023-06-22T05:48:39;5.10;;;4.60;;
11887;SDS011;6003;42.756;23.130;2023-06-22T05:51:06;5.63;;;5.15;;
11887;SDS011;6003;42.756;23.130;2023-06-22T05:53:32;7.15;;;5.03;;
11887;SDS011;6003;42.756;23.130;2023-06-22T05:55:59;5.20;;;4.80;;
11887;SDS011;6003;42.756;23.130;2023-06-22T05:58:26;5.40;;;4.90;;
11887;SDS011;6003;42.756;23.130;2023-06-22T06:00:54;6.18;;;5.28;;
11887;SDS011;6003;42.756;23.130;2023-06-22T06:03:21;6.50;;;5.68;;
11887;SDS011;6003;42.756;23.130;2023-06-22T06:05:48;6.20;;;5.55;;
11887;SDS011;6003;42.756;23.130;2023-06-22T06:08:15;7.97;;;5.78;;
11887;SDS011;6003;42.756;23.130;2023-06-22T06:10:42;6.65;;;6.05;;
11887;SDS011;6003;42.756;23.130;2023-06-22T06:13:09;6.38;;;5.82;;
11887;SDS011;6003;42.756;23.130;2023-06-22T06:15:35;9.02;;;5.63;;
11887;SDS011;6003;42.756;23.130;2023-06-22T06:18:04;7.65;;;6.32;;
11887;SDS011;6003;42.756;23.130;2023-06-22T06:20:31;6.93;;;6.03;;
11887;SDS011;6003;42.756;23.130;2023-06-22T06:34:42;7.53;;;6.82;;
11887;SDS011;6003;42.756;23.130;2023-06-22T06:37:09;7.47;;;6.50;;
11887;SDS011;6003;42.756;23.130;2023-06-22T06:39:36;7.80;;;6.50;;
11887;SDS011;6003;42.756;23.130;2023-06-22T06:42:04;8.70;;;6.63;;
11887;SDS011;6003;42.756;23.130;2023-06-22T06:44:31;7.03;;;6.32;;
11887;SDS011;6003;42.756;23.130;2023-06-22T06:46:58;8.10;;;7.03;;
11887;SDS011;6003;42.756;23.130;2023-06-22T06:49:25;7.57;;;6.78;;
11887;SDS011;6003;42.756;23.130;2023-06-22T06:51:54;7.47;;;6.57;;
11887;SDS011;6003;42.756;23.130;2023-06-22T06:54:21;7.40;;;6.32;;
11887;SDS011;6003;42.756;23.130;2023-06-22T06:56:48;7.45;;;6.75;;
11887;SDS011;6003;42.756;23.130;2023-06-22T06:59:15;6.53;;;5.90;;
11887;SDS011;6003;42.756;23.130;2023-06-22T07:01:42;8.82;;;6.65;;
11887;SDS011;6003;42.756;23.130;2023-06-22T07:04:09;8.15;;;6.68;;
11887;SDS011;6003;42.756;23.130;2023-06-22T07:06:36;8.05;;;6.72;;
11887;SDS011;6003;42.756;23.130;2023-06-22T07:09:05;8.38;;;6.90;;
11887;SDS011;6003;42.756;23.130;2023-06-22T07:11:32;7.32;;;6.38;;
11887;SDS011;6003;42.756;23.130;2023-06-22T07:14:00;9.73;;;7.07;;
11887;SDS011;6003;42.756;23.130;2023-06-22T07:16:27;8.43;;;7.13;;
11887;SDS011;6003;42.756;23.130;2023-06-22T07:18:55;8.68;;;6.65;;
11887;SDS011;6003;42.756;23.130;2023-06-22T07:21:22;6.88;;;6.25;;
11887;SDS011;6003;42.756;23.130;2023-06-22T07:23:49;6.82;;;6.22;;
11887;SDS011;6003;42.756;23.130;2023-06-22T07:26:17;8.90;;;6.75;;
11887;SDS011;6003;42.756;23.130;2023-06-22T07:28:44;7.38;;;6.68;;
11887;SDS011;6003;42.756;23.130;2023-06-22T07:31:11;6.78;;;6.18;;
11887;SDS011;6003;42.756;23.130;2023-06-22T07:33:37;7.07;;;6.07;;
11887;SDS011;6003;42.756;23.130;2023-06-22T07:36:04;6.50;;;5.90;;
11887;SDS011;6003;42.756;23.130;2023-06-22T07:38:33;6.72;;;6.10;;
11887;SDS011;6003;42.756;23.130;2023-06-22T07:41:00;7.07;;;5.75;;
11887;SDS011;6003;42.756;23.130;2023-06-22T07:43:28;7.43;;;6.07;;
11887;SDS011;6003;42.756;23.130;2023-06-22T07:45:58;6.13;;;5.57;;
11887;SDS011;6003;42.756;23.130;2023-06-22T07:48:25;6.93;;;5.80;;
11887;SDS011;6003;42.756;23.130;2023-06-22T07:50:52;6.47;;;5.80;;
11887;SDS011;6003;42.756;23.130;2023-06-22T07:53:19;5.50;;;5.10;;
11887;SDS011;6003;42.756;23.130;2023-06-22T07:55:46;5.63;;;5.18;;
11887;SDS011;6003;42.756;23.130;2023-06-22T07:58:13;5.68;;;5.15;;
11887;SDS011;6003;42.756;23.130;2023-06-22T08:00:42;6.05;;;5.55;;
11887;SDS011;6003;42.756;23.130;2023-06-22T08:03:08;5.65;;;5.22;;
11887;SDS011;6003;42.756;23.130;2023-06-22T08:05:35;5.97;;;5.38;;
11887;SDS011;6003;42.756;23.130;2023-06-22T08:08:02;7.07;;;5.55;;
11887;SDS011;6003;42.756;23.130;2023-06-22T08:10:29;5.53;;;5.03;;
11887;SDS011;6003;42.756;23.130;2023-06-22T08:12:56;5.40;;;4.90;;
11887;SDS011;6003;42.756;23.130;2023-06-22T08:15:23;6.05;;;5.45;;
11887;SDS011;6003;42.756;23.130;2023-06-22T08:17:51;5.45;;;4.95;;
11887;SDS011;6003;42.756;23.130;2023-06-22T08:20:18;5.60;;;5.10;;
11887;SDS011;6003;42.756;23.130;2023-06-22T08:22:45;5.88;;;5.28;;
11887;SDS011;6003;42.756;23.130;2023-06-22T08:25:12;5.45;;;5.03;;
11887;SDS011;6003;42.756;23.130;2023-06-22T08:27:39;5.53;;;5.03;;
11887;SDS011;6003;42.756;23.130;2023-06-22T08:30:06;5.57;;;5.05;;
11887;SDS011;6003;42.756;23.130;2023-06-22T08:32:36;5.72;;;5.22;;
11887;SDS011;6003;42.756;23.130;2023-06-22T08:35:05;5.00;;;4.60;;
11887;SDS011;6003;42.756;23.130;2023-06-22T08:37:33;5.43;;;4.93;;
11887;SDS011;6003;42.756;23.130;2023-06-22T08:40:00;4.70;;;4.30;;
11887;SDS011;6003;42.756;23.130;2023-06-22T08:42:30;5.22;;;4.80;;
11887;SDS011;6003;42.756;23.130;2023-06-22T08:44:57;5.20;;;4.72;;
11887;SDS011;6003;42.756;23.130;2023-06-22T08:47:23;4.85;;;4.45;;
11887;SDS011;6003;42.756;23.130;2023-06-22T08:49:50;5.65;;;5.15;;
11887;SDS011;6003;42.756;23.130;2023-06-22T08:52:19;4.78;;;4.38;;
11887;SDS011;6003;42.756;23.130;2023-06-22T08:54:48;5.57;;;4.97;;
11887;SDS011;6003;42.756;23.130;2023-06-22T08:57:15;6.30;;;5.70;;
11887;SDS011;6003;42.756;23.130;2023-06-22T08:59:42;5.82;;;5.20;;
11887;SDS011;6003;42.756;23.130;2023-06-22T09:02:09;5.18;;;4.78;;
11887;SDS011;6003;42.756;23.130;2023-06-22T09:04:36;5.35;;;4.82;;
11887;SDS011;6003;42.756;23.130;2023-06-22T09:07:03;5.47;;;5.00;;
11887;SDS011;6003;42.756;23.130;2023-06-22T09:09:32;7.28;;;5.10;;
11887;SDS011;6003;42.756;23.130;2023-06-22T09:11:59;5.60;;;5.10;;
11887;SDS011;6003;42.756;23.130;2023-06-22T09:14:26;5.70;;;5.18;;
11887;SDS011;6003;42.756;23.130;2023-06-22T09:16:53;5.93;;;5.28;;
11887;SDS011;6003;42.756;23.130;2023-06-22T09:19:19;5.95;;;5.35;;
11887;SDS011;6003;42.756;23.130;2023-06-22T09:21:46;6.05;;;5.45;;
11887;SDS011;6003;42.756;23.130;2023-06-22T09:24:13;5.85;;;5.32;;
11887;SDS011;6003;42.756;23.130;2023-06-22T09:27:00;5.70;;;5.15;;
11887;SDS011;6003;42.756;23.130;2023-06-22T09:32:31;6.53;;;5.82;;
11887;SDS011;6003;42.756;23.130;2023-06-22T09:34:58;5.10;;;4.70;;
11887;SDS011;6003;42.756;23.130;2023-06-22T09:37:24;5.13;;;4.55;;
11887;SDS011;6003;42.756;23.130;2023-06-22T09:39:51;4.70;;;4.32;;
11887;SDS011;6003;42.756;23.130;2023-06-22T09:42:20;5.43;;;4.90;;
11887;SDS011;6003;42.756;23.130;2023-06-22T09:44:47;5.20;;;4.70;;
11887;SDS011;6003;42.756;23.130;2023-06-22T09:47:13;4.85;;;4.45;;
11887;SDS011;6003;42.756;23.130;2023-06-22T09:49:40;5.50;;;5.05;;
11887;SDS011;6003;42.756;23.130;2023-06-22T09:52:07;5.10;;;4.63;;
11887;SDS011;6003;42.756;23.130;2023-06-22T09:54:36;4.97;;;4.57;;
11887;SDS011;6003;42.756;23.130;2023-06-22T09:57:03;4.47;;;4.07;;
11887;SDS011;6003;42.756;23.130;2023-06-22T09:59:31;5.15;;;4.18;;
11887;SDS011;6003;42.756;23.130;2023-06-22T10:01:58;4.88;;;4.47;;
11887;SDS011;6003;42.756;23.130;2023-06-22T10:04:25;5.10;;;4.65;;
11887;SDS011;6003;42.756;23.130;2023-06-22T10:06:52;4.75;;;4.35;;
11887;SDS011;6003;42.756;23.130;2023-06-22T10:09:19;4.57;;;4.20;;
11887;SDS011;6003;42.756;23.130;2023-06-22T10:11:46;4.43;;;4.13;;
11887;SDS011;6003;42.756;23.130;2023-06-22T10:14:13;4.40;;;4.10;;
11887;SDS011;6003;42.756;23.130;2023-06-22T10:16:41;4.72;;;4.30;;
11887;SDS011;6003;42.756;23.130;2023-06-22T10:19:08;4.55;;;4.15;;
11887;SDS011;6003;42.756;23.130;2023-06-22T10:21:35;7.43;;;4.47;;
11887;SDS011;6003;42.756;23.130;2023-06-22T10:24:02;4.55;;;4.25;;
11887;SDS011;6003;42.756;23.130;2023-06-22T10:26:31;4.55;;;4.25;;
11887;SDS011;6003;42.756;23.130;2023-06-22T10:28:58;4.70;;;4.30;;
11887;SDS011;6003;42.756;23.130;2023-06-22T10:31:25;4.30;;;4.00;;
11887;SDS011;6003;42.756;23.130;2023-06-22T10:33:54;5.18;;;4.70;;
11887;SDS011;6003;42.756;23.130;2023-06-22T10:36:21;4.32;;;4.03;;
11887;SDS011;6003;42.756;23.130;2023-06-22T10:38:48;5.05;;;4.65;;
11887;SDS011;6003;42.756;23.130;2023-06-22T10:41:15;5.18;;;4.78;;
11887;SDS011;6003;42.756;23.130;2023-06-22T10:43:42;5.47;;;4.78;;
11887;SDS011;6003;42.756;23.130;2023-06-22T10:46:09;4.70;;;4.30;;
11887;SDS011;6003;42.756;23.130;2023-06-22T10:48:36;4.75;;;4.35;;
11887;SDS011;6003;42.756;23.130;2023-06-22T10:51:04;4.32;;;4.03;;
11887;SDS011;6003;42.756;23.130;2023-06-22T10:53:31;4.47;;;4.15;;
11887;SDS011;6003;42.756;23.130;2023-06-22T10:55:58;5.30;;;4.80;;
11887;SDS011;6003;42.756;23.130;2023-06-22T10:58:25;4.72;;;4.20;;
11887;SDS011;6003;42.756;23.130;2023-06-22T11:00:52;5.13;;;4.72;;
11887;SDS011;6003;42.756;23.130;2023-06-22T11:03:18;4.75;;;4.35;;
11887;SDS011;6003;42.756;23.130;2023-06-22T11:05:46;5.57;;;4.50;;
11887;SDS011;6003;42.756;23.130;2023-06-22T11:08:14;5.20;;;4.70;;
11887;SDS011;6003;42.756;23.130;2023-06-22T11:10:41;4.25;;;3.95;;
11887;SDS011;6003;42.756;23.130;2023-06-22T11:13:10;5.70;;;5.20;;
11887;SDS011;6003;42.756;23.130;2023-06-22T11:15:36;4.68;;;4.25;;
11887;SDS011;6003;42.756;23.130;2023-06-22T11:18:04;5.28;;;4.78;;
11887;SDS011;6003;42.756;23.130;2023-06-22T11:20:32;6.25;;;4.97;;
11887;SDS011;6003;42.756;23.130;2023-06-22T11:23:03;5.53;;;5.03;;
11887;SDS011;6003;42.756;23.130;2023-06-22T11:25:32;5.60;;;5.10;;
11887;SDS011;6003;42.756;23.130;2023-06-22T11:28:00;4.63;;;4.10;;
11887;SDS011;6003;42.756;23.130;2023-06-22T11:30:28;4.70;;;4.28;;
11887;SDS011;6003;42.756;23.130;2023-06-22T11:32:56;5.05;;;4.60;;
11887;SDS011;6003;42.756;23.130;2023-06-22T11:35:23;4.95;;;4.55;;
11887;SDS011;6003;42.756;23.130;2023-06-22T11:37:50;5.18;;;4.68;;
11887;SDS011;6003;42.756;23.130;2023-06-22T11:40:17;4.93;;;4.53;;
11887;SDS011;6003;42.756;23.130;2023-06-22T11:42:46;7.00;;;4.82;;
11887;SDS011;6003;42.756;23.130;2023-06-22T11:45:12;5.55;;;5.05;;
11887;SDS011;6003;42.756;23.130;2023-06-22T11:47:39;5.00;;;4.60;;
11887;SDS011;6003;42.756;23.130;2023-06-22T11:50:07;7.72;;;4.53;;
11887;SDS011;6003;42.756;23.130;2023-06-22T11:52:34;4.72;;;4.32;;
11887;SDS011;6003;42.756;23.130;2023-06-22T11:55:02;5.05;;;4.60;;
11887;SDS011;6003;42.756;23.130;2023-06-22T11:57:33;4.57;;;4.28;;
11887;SDS011;6003;42.756;23.130;2023-06-22T12:00:02;4.85;;;4.45;;
11887;SDS011;6003;42.756;23.130;2023-06-22T12:02:40;4.90;;;4.40;;
11887;SDS011;6003;42.756;23.130;2023-06-22T12:05:07;5.28;;;4.78;;
11887;SDS011;6003;42.756;23.130;2023-06-22T12:07:34;5.20;;;4.68;;
11887;SDS011;6003;42.756;23.130;2023-06-22T12:10:02;5.53;;;4.75;;
11887;SDS011;6003;42.756;23.130;2023-06-22T12:12:30;5.35;;;4.85;;
11887;SDS011;6003;42.756;23.130;2023-06-22T12:26:35;4.00;;;3.10;;
11887;SDS011;6003;42.756;23.130;2023-06-22T12:29:01;2.90;;;2.70;;
11887;SDS011;6003;42.756;23.130;2023-06-22T12:43:55;3.17;;;2.97;;
11887;SDS011;6003;42.756;23.130;2023-06-22T12:46:21;3.13;;;2.90;;
11887;SDS011;6003;42.756;23.130;2023-06-22T12:48:48;3.70;;;2.70;;
11887;SDS011;6003;42.756;23.130;2023-06-22T12:51:20;2.80;;;2.60;;
11887;SDS011;6003;42.756;23.130;2023-06-22T12:53:47;5.83;;;3.23;;
11887;SDS011;6003;42.756;23.130;2023-06-22T12:56:14;2.83;;;2.60;;
11887;SDS011;6003;42.756;23.130;2023-06-22T12:58:41;4.23;;;2.87;;
11887;SDS011;6003;42.756;23.130;2023-06-22T13:01:09;2.58;;;2.38;;
11887;SDS011;6003;42.756;23.130;2023-06-22T13:03:36;2.73;;;2.50;;
11887;SDS011;6003;42.756;23.130;2023-06-22T13:06:03;3.40;;;2.60;;
11887;SDS011;6003;42.756;23.130;2023-06-22T13:08:30;5.17;;;2.67;;
11887;SDS011;6003;42.756;23.130;2023-06-22T13:10:57;2.93;;;2.73;;
11887;SDS011;6003;42.756;23.130;2023-06-22T13:13:24;3.63;;;2.63;;
11887;SDS011;6003;42.756;23.130;2023-06-22T13:15:52;3.47;;;2.60;;
11887;SDS011;6003;42.756;23.130;2023-06-22T13:18:20;2.97;;;2.67;;
11887;SDS011;6003;42.756;23.130;2023-06-22T13:20:47;3.13;;;2.60;;
11887;SDS011;6003;42.756;23.130;2023-06-22T13:23:14;3.07;;;2.87;;
11887;SDS011;6003;42.756;23.130;2023-06-22T13:38:36;5.27;;;4.30;;
11887;SDS011;6003;42.756;23.130;2023-06-22T13:41:03;5.57;;;4.60;;
11887;SDS011;6003;42.756;23.130;2023-06-22T13:43:30;10.33;;;4.40;;
11887;SDS011;6003;42.756;23.130;2023-06-22T13:45:57;10.17;;;4.63;;
11887;SDS011;6003;42.756;23.130;2023-06-22T13:48:24;6.37;;;4.23;;
11887;SDS011;6003;42.756;23.130;2023-06-22T13:50:53;3.93;;;3.40;;
11887;SDS011;6003;42.756;23.130;2023-06-22T13:53:20;4.47;;;4.07;;
11887;SDS011;6003;42.756;23.130;2023-06-22T14:07:56;6.73;;;4.67;;
11887;SDS011;6003;42.756;23.130;2023-06-22T14:10:22;4.93;;;3.77;;
11887;SDS011;6003;42.756;23.130;2023-06-22T14:12:49;7.33;;;3.80;;
11887;SDS011;6003;42.756;23.130;2023-06-22T14:15:18;4.03;;;3.63;;
11887;SDS011;6003;42.756;23.130;2023-06-22T14:17:45;4.37;;;3.80;;
11887;SDS011;6003;42.756;23.130;2023-06-22T14:20:12;4.77;;;3.47;;
11887;SDS011;6003;42.756;23.130;2023-06-22T14:22:38;4.80;;;4.17;;
11887;SDS011;6003;42.756;23.130;2023-06-22T14:25:07;6.87;;;4.27;;
11887;SDS011;6003;42.756;23.130;2023-06-22T14:27:34;4.47;;;3.93;;
11887;SDS011;6003;42.756;23.130;2023-06-22T14:30:01;5.50;;;4.60;;
11887;SDS011;6003;42.756;23.130;2023-06-22T14:32:28;5.63;;;3.87;;
11887;SDS011;6003;42.756;23.130;2023-06-22T14:34:56;7.27;;;3.73;;
11887;SDS011;6003;42.756;23.130;2023-06-22T14:37:22;6.93;;;5.03;;
11887;SDS011;6003;42.756;23.130;2023-06-22T14:39:49;4.83;;;4.03;;
11887;SDS011;6003;42.756;23.130;2023-06-22T14:42:17;5.13;;;4.53;;
11887;SDS011;6003;42.756;23.130;2023-06-22T14:44:44;7.53;;;4.47;;
11887;SDS011;6003;42.756;23.130;2023-06-22T14:47:11;5.70;;;4.10;;
11887;SDS011;6003;42.756;23.130;2023-06-22T14:49:38;4.70;;;4.20;;
11887;SDS011;6003;42.756;23.130;2023-06-22T15:03:35;4.88;;;4.28;;
11887;SDS011;6003;42.756;23.130;2023-06-22T15:06:02;5.45;;;3.97;;
11887;SDS011;6003;42.756;23.130;2023-06-22T15:08:30;5.35;;;4.03;;
11887;SDS011;6003;42.756;23.130;2023-06-22T15:10:58;4.88;;;4.38;;
11887;SDS011;6003;42.756;23.130;2023-06-22T15:13:26;7.97;;;4.90;;
11887;SDS011;6003;42.756;23.130;2023-06-22T15:15:54;4.95;;;4.40;;
11887;SDS011;6003;42.756;23.130;2023-06-22T15:18:21;6.13;;;4.80;;
11887;SDS011;6003;42.756;23.130;2023-06-22T15:20:49;5.07;;;4.57;;
11887;SDS011;6003;42.756;23.130;2023-06-22T15:23:16;4.80;;;4.40;;
11887;SDS011;6003;42.756;23.130;2023-06-22T15:25:43;6.20;;;4.38;;
11887;SDS011;6003;42.756;23.130;2023-06-22T15:28:11;6.30;;;4.38;;
11887;SDS011;6003;42.756;23.130;2023-06-22T15:30:38;5.13;;;4.63;;
11887;SDS011;6003;42.756;23.130;2023-06-22T15:33:04;4.03;;;3.63;;
11887;SDS011;6003;42.756;23.130;2023-06-22T15:35:31;4.68;;;4.20;;
11887;SDS011;6003;42.756;23.130;2023-06-22T15:38:00;5.20;;;4.05;;
11887;SDS011;6003;42.756;23.130;2023-06-22T15:40:27;4.45;;;4.05;;
11887;SDS011;6003;42.756;23.130;2023-06-22T15:42:54;4.95;;;4.45;;
11887;SDS011;6003;42.756;23.130;2023-06-22T15:45:20;6.15;;;4.07;;
11887;SDS011;6003;42.756;23.130;2023-06-22T15:47:47;6.82;;;4.72;;
11887;SDS011;6003;42.756;23.130;2023-06-22T15:50:14;7.38;;;4.40;;
11887;SDS011;6003;42.756;23.130;2023-06-22T15:52:41;4.78;;;4.28;;
11887;SDS011;6003;42.756;23.130;2023-06-22T15:55:14;6.80;;;4.20;;
11887;SDS011;6003;42.756;23.130;2023-06-22T15:57:40;5.53;;;4.10;;
11887;SDS011;6003;42.756;23.130;2023-06-22T16:00:12;4.85;;;4.35;;
11887;SDS011;6003;42.756;23.130;2023-06-22T16:02:41;4.17;;;3.87;;
11887;SDS011;6003;42.756;23.130;2023-06-22T16:05:08;4.37;;;3.87;;
11887;SDS011;6003;42.756;23.130;2023-06-22T16:07:35;3.78;;;3.40;;
11887;SDS011;6003;42.756;23.130;2023-06-22T16:10:02;5.27;;;3.77;;